Time,TemperatureF,DewpointF,PressureIn,WindDirection,WindDirectionDegrees,WindSpeedMPH,WindSpeedGustMPH,Humidity,HourlyPrecipIn,Conditions,Clouds,dailyrainin,SoftwareType,DateUTC
2013-11-26 00:12:00,24.0,18.0,30.73,NNW,348,0.0,-999.0,78,-99.99,,,-99.99,,2013-11-26 07:12:00,
2013-11-26 00:21:00,24.0,18.0,30.73,NNE,25,3.0,-999.0,79,-99.99,,,-99.99,,2013-11-26 07:21:00,
2013-11-26 00:42:00,24.0,18.0,30.73,North,9,0.0,-999.0,78,-99.99,,,-99.99,,2013-11-26 07:42:00,
2013-11-26 00:52:00,24.0,18.0,30.73,North,9,0.0,-999.0,77,-99.99,,,-99.99,,2013-11-26 07:52:00,
2013-11-26 01:22:00,23.0,17.0,30.73,North,9,0.0,-999.0,79,-99.99,,,-99.99,,2013-11-26 08:22:00,
2013-11-26 01:42:00,24.0,18.0,30.73,NNE,21,2.0,-999.0,77,-99.99,,,-99.99,,2013-11-26 08:42:00,
2013-11-26 01:52:00,24.0,18.0,30.73,NNE,21,0.0,-999.0,77,-99.99,,,-99.99,,2013-11-26 08:52:00,
2013-11-26 02:21:00,21.0,16.0,30.73,West,265,0.0,-999.0,80,-99.99,,,-99.99,,2013-11-26 09:21:00,
2013-11-26 02:43:00,20.0,16.0,30.73,West,265,0.0,-999.0,83,-99.99,,,-99.99,,2013-11-26 09:43:00,
2013-11-26 02:53:00,22.0,17.0,30.73,West,265,0.0,-999.0,81,-99.99,,,-99.99,,2013-11-26 09:53:00,
2013-11-26 03:12:00,23.0,18.0,30.72,West,274,0.0,-999.0,80,-99.99,,,-99.99,,2013-11-26 10:12:00,
2013-11-26 03:23:00,21.0,16.0,30.72,NNE,24,2.0,-999.0,79,-99.99,,,-99.99,,2013-11-26 10:23:00,
2013-11-26 03:43:00,21.0,16.0,30.72,NNE,30,3.0,-999.0,80,-99.99,,,-99.99,,2013-11-26 10:43:00,
2013-11-26 03:53:00,21.0,16.0,30.72,NE,36,4.0,-999.0,80,-99.99,,,-99.99,,2013-11-26 10:53:00,
2013-11-26 04:23:00,21.0,16.0,30.72,NNE,13,3.0,-999.0,81,-99.99,,,-99.99,,2013-11-26 11:23:00,
2013-11-26 04:52:00,20.0,15.0,30.72,NE,36,3.0,-999.0,80,-99.99,,,-99.99,,2013-11-26 11:52:00,
2013-11-26 05:12:00,19.0,15.0,30.72,NE,44,4.0,-999.0,83,-99.99,,,-99.99,,2013-11-26 12:12:00,
2013-11-26 05:21:00,20.0,15.0,30.71,NNE,22,2.0,-999.0,82,-99.99,,,-99.99,,2013-11-26 12:21:00,
2013-11-26 05:42:00,21.0,16.0,30.72,North,360,3.0,-999.0,80,-99.99,,,-99.99,,2013-11-26 12:42:00,
2013-11-26 05:52:00,21.0,16.0,30.72,North,355,3.0,-999.0,80,-99.99,,,-99.99,,2013-11-26 12:52:00,
2013-11-26 06:21:00,20.0,15.0,30.72,NNW,346,3.0,-999.0,81,-99.99,,,-99.99,,2013-11-26 13:21:00,
2013-11-26 06:42:00,20.0,15.0,30.72,NNW,336,2.0,-999.0,80,-99.99,,,-99.99,,2013-11-26 13:42:00,
2013-11-26 06:52:00,20.0,15.0,30.72,NNW,331,1.0,-999.0,81,-99.99,,,-99.99,,2013-11-26 13:52:00,
2013-11-26 07:21:00,19.0,14.0,30.72,NE,39,3.0,-999.0,82,-99.99,,,-99.99,,2013-11-26 14:21:00,
2013-11-26 07:52:00,20.0,15.0,30.72,NE,36,2.0,-999.0,80,-99.99,,,-99.99,,2013-11-26 14:52:00,
2013-11-26 08:21:00,21.0,15.0,30.73,North,355,1.0,-999.0,78,-99.99,,,-99.99,,2013-11-26 15:21:00,
2013-11-26 08:54:00,23.0,17.0,30.73,NNW,337,1.0,-999.0,79,-99.99,,,-99.99,,2013-11-26 15:54:00,
2013-11-26 09:13:00,24.0,19.0,30.73,NNE,13,3.0,-999.0,80,-99.99,,,-99.99,,2013-11-26 16:13:00,
2013-11-26 09:23:00,23.0,18.0,30.72,NE,35,6.0,-999.0,81,-99.99,,,-99.99,,2013-11-26 16:23:00,
2013-11-26 09:43:00,25.0,20.0,30.72,ENE,59,3.0,-999.0,81,-99.99,,,-99.99,,2013-11-26 16:43:00,
2013-11-26 09:54:00,26.0,20.0,30.72,NNE,30,3.0,-999.0,78,-99.99,,,-99.99,,2013-11-26 16:54:00,
2013-11-26 10:22:00,29.0,22.0,30.71,North,5,2.0,-999.0,74,-99.99,,,-99.99,,2013-11-26 17:22:00,
2013-11-26 10:42:00,32.0,24.0,30.71,NW,308,0.0,-999.0,71,-99.99,,,-99.99,,2013-11-26 17:42:00,
2013-11-26 10:52:00,34.0,23.0,30.70,NW,307,0.0,-999.0,65,-99.99,,,-99.99,,2013-11-26 17:52:00,
2013-11-26 11:21:00,37.0,24.0,30.70,NW,319,0.0,-999.0,58,-99.99,,,-99.99,,2013-11-26 18:21:00,
2013-11-26 11:42:00,38.0,25.0,30.69,NW,319,0.0,-999.0,58,-99.99,,,-99.99,,2013-11-26 18:42:00,
2013-11-26 11:53:00,39.0,24.0,30.68,North,355,1.0,-999.0,55,-99.99,,,-99.99,,2013-11-26 18:53:00,
2013-11-26 12:11:00,39.0,25.0,30.67,NNW,332,0.0,-999.0,56,-99.99,,,-99.99,,2013-11-26 19:11:00,
2013-11-26 14:11:00,45.0,26.0,30.61,NW,311,0.0,-999.0,47,-99.99,,,-99.99,,2013-11-26 21:11:00,
2013-11-26 14:22:00,45.0,25.0,30.60,NW,322,2.0,-999.0,46,-99.99,,,-99.99,,2013-11-26 21:22:00,
2013-11-26 14:43:00,45.0,25.0,30.60,NNE,27,1.0,-999.0,45,-99.99,,,-99.99,,2013-11-26 21:43:00,
2013-11-26 14:53:00,45.0,25.0,30.59,North,5,0.0,-999.0,45,-99.99,,,-99.99,,2013-11-26 21:53:00,
2013-11-26 15:23:00,44.0,25.0,30.58,NNE,20,1.0,-999.0,46,-99.99,,,-99.99,,2013-11-26 22:23:00,
2013-11-26 15:33:00,44.0,25.0,30.58,NNE,20,1.0,-999.0,46,-99.99,,,-99.99,,2013-11-26 22:33:00,
2013-11-26 15:43:00,44.0,25.0,30.58,NNE,20,1.0,-999.0,46,-99.99,,,-99.99,,2013-11-26 22:43:00,
2013-11-26 15:53:00,43.0,25.0,30.57,North,5,2.0,-999.0,49,-99.99,,,-99.99,,2013-11-26 22:53:00,
2013-11-26 16:22:00,40.0,23.0,30.57,NNE,12,1.0,-999.0,51,-99.99,,,-99.99,,2013-11-26 23:22:00,
2013-11-26 16:43:00,38.0,24.0,30.57,NE,34,4.0,-999.0,56,-99.99,,,-99.99,,2013-11-26 23:43:00,
2013-11-26 16:53:00,35.0,23.0,30.57,NE,42,4.0,-999.0,60,-99.99,,,-99.99,,2013-11-26 23:53:00,
2013-11-26 17:11:00,33.0,22.0,30.57,NE,49,4.0,-999.0,63,-99.99,,,-99.99,,2013-11-27 00:11:00,
2013-11-26 17:21:00,31.0,21.0,30.57,NE,49,4.0,-999.0,66,-99.99,,,-99.99,,2013-11-27 00:21:00,
2013-11-26 17:52:00,32.0,22.0,30.57,NE,53,5.0,-999.0,65,-99.99,,,-99.99,,2013-11-27 00:52:00,
2013-11-26 18:11:00,31.0,21.0,30.57,NE,55,5.0,-999.0,65,-99.99,,,-99.99,,2013-11-27 01:11:00,
2013-11-26 18:21:00,31.0,21.0,30.57,NE,55,5.0,-999.0,65,-99.99,,,-99.99,,2013-11-27 01:21:00,
2013-11-26 18:42:00,31.0,21.0,30.57,NE,55,5.0,-999.0,67,-99.99,,,-99.99,,2013-11-27 01:42:00,
2013-11-26 18:52:00,31.0,21.0,30.57,NE,55,4.0,-999.0,66,-99.99,,,-99.99,,2013-11-27 01:52:00,
2013-11-26 19:12:00,32.0,22.0,30.57,NE,55,3.0,-999.0,65,-99.99,,,-99.99,,2013-11-27 02:12:00,
2013-11-26 19:21:00,32.0,20.0,30.57,NE,55,0.0,-999.0,62,-99.99,,,-99.99,,2013-11-27 02:21:00,
2013-11-26 19:42:00,32.0,20.0,30.57,NE,53,0.0,-999.0,61,-99.99,,,-99.99,,2013-11-27 02:42:00,
2013-11-26 19:52:00,31.0,21.0,30.57,NNW,330,0.0,-999.0,67,-99.99,,,-99.99,,2013-11-27 02:52:00,
2013-11-26 20:11:00,30.0,21.0,30.56,WNW,300,2.0,-999.0,69,-99.99,,,-99.99,,2013-11-27 03:11:00,
2013-11-26 20:21:00,31.0,22.0,30.56,WNW,300,0.0,-999.0,69,-99.99,,,-99.99,,2013-11-27 03:21:00,
2013-11-26 20:44:00,31.0,22.0,30.55,WNW,290,3.0,-999.0,69,-99.99,,,-99.99,,2013-11-27 03:44:00,
2013-11-26 20:53:00,30.0,21.0,30.55,WNW,289,3.0,-999.0,69,-99.99,,,-99.99,,2013-11-27 03:53:00,
2013-11-26 21:13:00,30.0,21.0,30.55,WNW,289,1.0,-999.0,70,-99.99,,,-99.99,,2013-11-27 04:13:00,
2013-11-26 21:43:00,28.0,20.0,30.55,NNE,15,1.0,-999.0,71,-99.99,,,-99.99,,2013-11-27 04:43:00,
2013-11-26 21:53:00,27.0,21.0,30.55,NNE,17,0.0,-999.0,78,-99.99,,,-99.99,,2013-11-27 04:53:00,
2013-11-26 22:22:00,26.0,20.0,30.55,NNE,21,3.0,-999.0,79,-99.99,,,-99.99,,2013-11-27 05:22:00,
2013-11-26 22:42:00,26.0,21.0,30.54,NNE,27,3.0,-999.0,81,-99.99,,,-99.99,,2013-11-27 05:42:00,
2013-11-26 22:53:00,26.0,21.0,30.54,NNE,30,3.0,-999.0,80,-99.99,,,-99.99,,2013-11-27 05:53:00,
2013-11-26 23:12:00,26.0,20.0,30.53,NNE,30,3.0,-999.0,79,-99.99,,,-99.99,,2013-11-27 06:12:00,
2013-11-26 23:22:00,26.0,21.0,30.53,NE,34,3.0,-999.0,80,-99.99,,,-99.99,,2013-11-27 06:22:00,
2013-11-26 23:42:00,26.0,21.0,30.53,NE,34,1.0,-999.0,81,-99.99,,,-99.99,,2013-11-27 06:42:00,
2013-11-26 23:52:00,27.0,22.0,30.53,NNE,31,0.0,-999.0,80,-99.99,,,-99.99,,2013-11-27 06:52:00,